Terminal Aerodrome Forecast
Issued by NWS Cleveland, OH

Home | Current Version | Previous Version | Graphics & Text | Print | Product List | Glossary Off
Versions: 1 2 3 4 5 6 7 8 9 10 11 12 13 14 15 16 17 18 19 20 21 22 23 24 25 26 27 28 29 30

246
FTUS41 KCLE 250646 AAA
TAFCLE
TAF AMD
KCLE 250646Z 2507/2612 36010KT P6SM OVC030
     FM251500 01010KT P6SM BKN035
     FM252000 01010KT P6SM SCT040
     FM260200 08006KT P6SM FEW250
     FM260900 14004KT P6SM FEW250=

USA.gov is the U.S. government's official web portal to all federal, state and local government web resources and services.